Time,TemperatureF,DewpointF,PressureIn,WindDirection,WindDirectionDegrees,WindSpeedMPH,WindSpeedGustMPH,Humidity,HourlyPrecipIn,Conditions,Clouds,dailyrainin,SoftwareType,DateUTC
2013-02-02 00:01:00,1.3,-3.4,30.18,SW,236,0.0,0.0,80,0.00,,,0.00,Wunderground v.1.15,2013-02-02 06:01:00,
2013-02-02 00:07:00,1.3,-3.4,30.18,WSW,243,0.0,0.0,80,0.00,,,0.00,Wunderground v.1.15,2013-02-02 06:07:00,
2013-02-02 00:12:00,1.3,-3.4,30.18,WSW,243,0.0,0.0,80,0.00,,,0.00,Wunderground v.1.15,2013-02-02 06:12:00,
2013-02-02 00:18:00,1.3,-3.4,30.18,WSW,243,0.0,0.0,80,0.00,,,0.00,Wunderground v.1.15,2013-02-02 06:18:00,
2013-02-02 00:24:00,1.3,-3.4,30.17,WSW,243,0.0,0.0,80,0.00,,,0.00,Wunderground v.1.15,2013-02-02 06:24:00,
2013-02-02 00:29:00,1.3,-3.4,30.17,WSW,243,0.0,0.0,80,0.00,,,0.00,Wunderground v.1.15,2013-02-02 06:29:00,
2013-02-02 00:35:00,1.3,-3.4,30.17,WSW,243,0.0,0.0,80,0.00,,,0.00,Wunderground v.1.15,2013-02-02 06:35:00,
2013-02-02 00:41:00,1.4,-3.3,30.17,WSW,243,0.0,0.0,80,0.00,,,0.00,Wunderground v.1.15,2013-02-02 06:41:00,
2013-02-02 00:46:00,1.4,-3.1,30.17,WSW,243,0.0,0.0,81,0.00,,,0.00,Wunderground v.1.15,2013-02-02 06:46:00,
2013-02-02 00:52:00,1.4,-3.1,30.17,WSW,243,0.0,0.0,81,0.00,,,0.00,Wunderground v.1.15,2013-02-02 06:52:00,
2013-02-02 00:58:00,1.4,-3.3,30.17,WSW,243,0.0,0.0,80,0.00,,,0.00,Wunderground v.1.15,2013-02-02 06:58:00,
2013-02-02 01:04:00,1.4,-3.3,30.17,WSW,243,0.0,0.0,80,0.00,,,0.00,Wunderground v.1.15,2013-02-02 07:04:00,
2013-02-02 01:10:00,1.4,-3.1,30.17,WSW,243,0.0,0.0,81,0.00,,,0.00,Wunderground v.1.15,2013-02-02 07:10:00,
2013-02-02 01:15:00,1.4,-3.1,30.17,WSW,243,0.0,0.0,81,0.00,,,0.00,Wunderground v.1.15,2013-02-02 07:15:00,
2013-02-02 01:20:00,1.4,-3.3,30.17,WSW,243,0.0,0.0,80,0.00,,,0.00,Wunderground v.1.15,2013-02-02 07:20:00,
2013-02-02 01:26:00,1.4,-3.3,30.17,WSW,243,0.0,0.0,80,0.00,,,0.00,Wunderground v.1.15,2013-02-02 07:26:00,
2013-02-02 01:32:00,1.4,-3.3,30.17,WSW,243,0.0,0.0,80,0.00,,,0.00,Wunderground v.1.15,2013-02-02 07:32:00,
2013-02-02 01:38:00,1.4,-3.1,30.17,WSW,243,0.0,0.0,81,0.00,,,0.00,Wunderground v.1.15,2013-02-02 07:38:00,
2013-02-02 01:43:00,1.4,-3.1,30.17,WSW,243,0.0,0.0,81,0.00,,,0.00,Wunderground v.1.15,2013-02-02 07:43:00,
2013-02-02 01:49:00,1.4,-3.1,30.17,WSW,243,0.0,0.0,81,0.00,,,0.00,Wunderground v.1.15,2013-02-02 07:49:00,
2013-02-02 01:55:00,1.4,-3.1,30.17,WSW,243,0.0,0.0,81,0.00,,,0.00,Wunderground v.1.15,2013-02-02 07:55:00,
2013-02-02 02:01:00,1.4,-3.1,30.17,WSW,243,0.0,0.0,81,0.00,,,0.00,Wunderground v.1.15,2013-02-02 08:01:00,
2013-02-02 02:07:00,1.4,-3.1,30.17,WSW,243,0.0,0.0,81,0.00,,,0.00,Wunderground v.1.15,2013-02-02 08:07:00,
2013-02-02 02:12:00,1.4,-3.1,30.17,WSW,243,0.0,0.0,81,0.00,,,0.00,Wunderground v.1.15,2013-02-02 08:12:00,
2013-02-02 02:18:00,1.5,-3.0,30.17,WSW,243,0.0,0.0,81,0.00,,,0.00,Wunderground v.1.15,2013-02-02 08:18:00,
2013-02-02 02:24:00,1.5,-3.0,30.17,WSW,243,0.0,0.0,81,0.00,,,0.00,Wunderground v.1.15,2013-02-02 08:24:00,
2013-02-02 02:29:00,1.5,-3.0,30.17,WSW,243,0.0,0.0,81,0.00,,,0.00,Wunderground v.1.15,2013-02-02 08:29:00,
2013-02-02 02:35:00,1.5,-3.0,30.17,WSW,243,0.0,0.0,81,0.00,,,0.00,Wunderground v.1.15,2013-02-02 08:35:00,
2013-02-02 02:41:00,1.5,-3.0,30.17,WSW,243,0.0,0.0,81,0.00,,,0.00,Wunderground v.1.15,2013-02-02 08:41:00,
2013-02-02 02:46:00,1.5,-3.0,30.17,WSW,243,0.0,0.0,81,0.00,,,0.00,Wunderground v.1.15,2013-02-02 08:46:00,
2013-02-02 02:52:00,1.5,-3.0,30.16,NE,42,0.0,0.0,81,0.00,,,0.00,Wunderground v.1.15,2013-02-02 08:52:00,
2013-02-02 02:58:00,1.5,-3.0,30.16,NE,41,0.0,0.0,81,0.00,,,0.00,Wunderground v.1.15,2013-02-02 08:58:00,
2013-02-02 03:03:00,1.5,-3.0,30.16,NNE,29,0.0,0.0,81,0.00,,,0.00,Wunderground v.1.15,2013-02-02 09:03:00,
2013-02-02 03:09:00,1.5,-3.0,30.16,NE,37,0.0,0.0,81,0.00,,,0.00,Wunderground v.1.15,2013-02-02 09:09:00,
2013-02-02 03:14:00,1.5,-3.0,30.16,NE,36,0.0,0.0,81,0.00,,,0.00,Wunderground v.1.15,2013-02-02 09:14:00,
2013-02-02 03:20:00,1.5,-3.0,30.16,NE,50,0.0,0.0,81,0.00,,,0.00,Wunderground v.1.15,2013-02-02 09:20:00,
2013-02-02 03:26:00,1.4,-3.1,30.16,NE,47,0.0,0.0,81,0.00,,,0.00,Wunderground v.1.15,2013-02-02 09:26:00,
2013-02-02 03:31:00,1.5,-3.0,30.16,NE,44,0.0,0.0,81,0.00,,,0.00,Wunderground v.1.15,2013-02-02 09:31:00,
2013-02-02 03:37:00,1.4,-3.1,30.16,NNE,13,0.0,0.0,81,0.00,,,0.00,Wunderground v.1.15,2013-02-02 09:37:00,
2013-02-02 03:43:00,1.4,-3.1,30.16,NE,44,0.0,0.0,81,0.00,,,0.00,Wunderground v.1.15,2013-02-02 09:43:00,
2013-02-02 03:49:00,1.4,-3.3,30.16,North,5,0.0,0.0,80,0.00,,,0.00,Wunderground v.1.15,2013-02-02 09:49:00,
2013-02-02 03:54:00,1.2,-3.5,30.16,North,9,0.0,0.0,80,0.00,,,0.00,Wunderground v.1.15,2013-02-02 09:54:00,
2013-02-02 04:00:00,1.1,-3.6,30.16,NE,40,0.0,0.0,80,0.00,,,0.00,Wunderground v.1.15,2013-02-02 10:00:00,
2013-02-02 04:06:00,1.1,-3.6,30.16,NE,35,0.0,0.0,80,0.00,,,0.00,Wunderground v.1.15,2013-02-02 10:06:00,
2013-02-02 04:12:00,1.1,-3.6,30.16,NNE,28,0.0,0.0,80,0.00,,,0.00,Wunderground v.1.15,2013-02-02 10:12:00,
2013-02-02 04:18:00,1.0,-3.7,30.16,NE,37,0.0,0.0,80,0.00,,,0.00,Wunderground v.1.15,2013-02-02 10:18:00,
2013-02-02 04:23:00,1.0,-3.7,30.16,NNE,30,0.0,0.0,80,0.00,,,0.00,Wunderground v.1.15,2013-02-02 10:23:00,
2013-02-02 04:28:00,1.0,-3.7,30.16,North,355,0.0,0.0,80,0.00,,,0.00,Wunderground v.1.15,2013-02-02 10:28:00,
2013-02-02 04:34:00,0.9,-3.8,30.16,North,5,0.0,0.0,80,0.00,,,0.00,Wunderground v.1.15,2013-02-02 10:34:00,
2013-02-02 04:40:00,0.9,-3.8,30.16,NE,47,0.0,0.0,80,0.00,,,0.00,Wunderground v.1.15,2013-02-02 10:40:00,
2013-02-02 04:46:00,0.8,-3.9,30.16,North,360,0.0,0.0,80,0.00,,,0.00,Wunderground v.1.15,2013-02-02 10:46:00,
2013-02-02 04:52:00,0.8,-3.9,30.16,NE,38,0.0,0.0,80,0.00,,,0.00,Wunderground v.1.15,2013-02-02 10:52:00,
2013-02-02 04:58:00,0.8,-3.9,30.16,NNE,20,0.0,0.0,80,0.00,,,0.00,Wunderground v.1.15,2013-02-02 10:58:00,
2013-02-02 05:04:00,0.8,-3.9,30.17,North,11,0.0,0.0,80,0.00,,,0.00,Wunderground v.1.15,2013-02-02 11:04:00,
2013-02-02 05:10:00,0.8,-3.9,30.17,North,10,0.0,0.0,80,0.00,,,0.00,Wunderground v.1.15,2013-02-02 11:10:00,
2013-02-02 05:15:00,0.8,-3.9,30.16,NW,306,0.0,0.0,80,0.00,,,0.00,Wunderground v.1.15,2013-02-02 11:15:00,
2013-02-02 05:20:00,0.8,-3.9,30.16,West,279,0.0,0.0,80,0.00,,,0.00,Wunderground v.1.15,2013-02-02 11:20:00,
2013-02-02 05:26:00,0.8,-3.9,30.16,West,281,0.0,0.0,80,0.00,,,0.00,Wunderground v.1.15,2013-02-02 11:26:00,
2013-02-02 05:32:00,0.9,-3.8,30.17,WNW,283,0.0,0.0,80,0.00,,,0.00,Wunderground v.1.15,2013-02-02 11:32:00,
2013-02-02 05:37:00,0.9,-3.8,30.17,NNW,346,0.0,0.0,80,0.00,,,0.00,Wunderground v.1.15,2013-02-02 11:37:00,
2013-02-02 05:43:00,0.9,-3.8,30.17,North,11,0.0,0.0,80,0.00,,,0.00,Wunderground v.1.15,2013-02-02 11:43:00,
2013-02-02 05:48:00,0.9,-3.8,30.17,North,355,0.0,0.0,80,0.00,,,0.00,Wunderground v.1.15,2013-02-02 11:48:00,
2013-02-02 05:54:00,0.9,-3.8,30.17,NNE,25,0.0,0.0,80,0.00,,,0.00,Wunderground v.1.15,2013-02-02 11:54:00,
2013-02-02 06:00:00,0.9,-3.8,30.17,NNE,20,0.0,0.0,80,0.00,,,0.00,Wunderground v.1.15,2013-02-02 12:00:00,
2013-02-02 06:06:00,0.9,-3.8,30.18,NNE,27,0.0,0.0,80,0.00,,,0.00,Wunderground v.1.15,2013-02-02 12:06:00,
2013-02-02 06:11:00,0.9,-3.8,30.18,North,360,0.0,0.0,80,0.00,,,0.00,Wunderground v.1.15,2013-02-02 12:11:00,
2013-02-02 06:17:00,0.9,-3.8,30.18,North,360,0.0,0.0,80,0.00,,,0.00,Wunderground v.1.15,2013-02-02 12:17:00,
2013-02-02 06:22:00,0.9,-3.8,30.18,NNE,21,0.0,0.0,80,0.00,,,0.00,Wunderground v.1.15,2013-02-02 12:22:00,
2013-02-02 06:28:00,0.9,-3.8,30.18,NNE,27,0.0,0.0,80,0.00,,,0.00,Wunderground v.1.15,2013-02-02 12:28:00,
2013-02-02 06:34:00,0.8,-4.2,30.18,North,355,0.0,0.0,79,0.00,,,0.00,Wunderground v.1.15,2013-02-02 12:34:00,
2013-02-02 06:40:00,0.8,-4.2,30.18,North,11,0.0,0.0,79,0.00,,,0.00,Wunderground v.1.15,2013-02-02 12:40:00,
2013-02-02 06:45:00,0.7,-4.3,30.18,NNE,16,0.0,0.0,79,0.00,,,0.00,Wunderground v.1.15,2013-02-02 12:45:00,
2013-02-02 06:51:00,0.6,-4.4,30.18,North,5,0.0,0.0,79,0.00,,,0.00,Wunderground v.1.15,2013-02-02 12:51:00,
2013-02-02 06:57:00,0.6,-4.4,30.18,NNE,26,0.0,0.0,79,0.00,,,0.00,Wunderground v.1.15,2013-02-02 12:57:00,
2013-02-02 07:03:00,0.5,-4.7,30.19,North,11,0.0,0.0,78,0.00,,,0.00,Wunderground v.1.15,2013-02-02 13:03:00,
2013-02-02 07:08:00,0.4,-4.8,30.18,North,9,0.0,0.0,78,0.00,,,0.00,Wunderground v.1.15,2013-02-02 13:08:00,
2013-02-02 07:14:00,0.4,-4.8,30.19,North,11,0.0,0.0,78,0.00,,,0.00,Wunderground v.1.15,2013-02-02 13:14:00,
2013-02-02 07:20:00,0.2,-5.0,30.18,NNE,17,0.0,0.0,78,0.00,,,0.00,Wunderground v.1.15,2013-02-02 13:20:00,
2013-02-02 07:26:00,0.1,-5.1,30.19,North,351,0.0,0.0,78,0.00,,,0.00,Wunderground v.1.15,2013-02-02 13:26:00,
2013-02-02 07:32:00,0.0,-5.5,30.19,North,10,0.0,0.0,77,0.00,,,0.00,Wunderground v.1.15,2013-02-02 13:32:00,
2013-02-02 07:37:00,-0.1,-5.6,30.19,North,5,0.0,0.0,77,0.00,,,0.00,Wunderground v.1.15,2013-02-02 13:37:00,
2013-02-02 07:43:00,-0.2,-5.7,30.19,NNE,21,0.0,0.0,77,0.00,,,0.00,Wunderground v.1.15,2013-02-02 13:43:00,
2013-02-02 07:49:00,-0.3,-5.8,30.20,North,5,0.0,0.0,77,0.00,,,0.00,Wunderground v.1.15,2013-02-02 13:49:00,
2013-02-02 07:54:00,-0.5,-6.0,30.20,NNE,32,0.0,0.0,77,0.00,,,0.00,Wunderground v.1.15,2013-02-02 13:54:00,
2013-02-02 08:00:00,-0.7,-6.2,30.20,North,355,0.0,0.0,77,0.00,,,0.00,Wunderground v.1.15,2013-02-02 14:00:00,
2013-02-02 08:06:00,-0.7,-5.9,30.20,NNE,24,0.0,0.0,78,0.00,,,0.00,Wunderground v.1.15,2013-02-02 14:06:00,
2013-02-02 08:11:00,-0.5,-6.0,30.20,NNE,30,0.0,0.0,77,0.00,,,0.00,Wunderground v.1.15,2013-02-02 14:11:00,
2013-02-02 08:17:00,0.0,-5.5,30.20,North,9,0.0,0.0,77,0.00,,,0.00,Wunderground v.1.15,2013-02-02 14:17:00,
2013-02-02 08:23:00,0.2,-5.6,30.20,North,9,0.0,0.0,76,0.00,,,0.00,Wunderground v.1.15,2013-02-02 14:23:00,
2013-02-02 08:29:00,0.5,-5.3,30.20,NNE,26,0.0,0.0,76,0.00,,,0.00,Wunderground v.1.15,2013-02-02 14:29:00,
2013-02-02 08:35:00,0.5,-5.6,30.20,NNE,29,0.0,0.0,75,0.00,,,0.00,Wunderground v.1.15,2013-02-02 14:35:00,
2013-02-02 08:41:00,0.7,-5.4,30.20,North,5,0.0,0.0,75,0.00,,,0.00,Wunderground v.1.15,2013-02-02 14:41:00,
2013-02-02 08:47:00,0.9,-5.2,30.20,NNE,28,0.0,0.0,75,0.00,,,0.00,Wunderground v.1.15,2013-02-02 14:47:00,
2013-02-02 08:53:00,1.1,-5.0,30.20,NNE,32,0.0,0.0,75,0.00,,,0.00,Wunderground v.1.15,2013-02-02 14:53:00,
2013-02-02 08:59:00,1.3,-5.1,30.20,NNE,28,0.0,0.0,74,0.00,,,0.00,Wunderground v.1.15,2013-02-02 14:59:00,
2013-02-02 09:04:00,1.4,-5.0,30.20,NE,42,0.0,0.0,74,0.00,,,0.00,Wunderground v.1.15,2013-02-02 15:04:00,
2013-02-02 09:09:00,1.7,-4.7,30.20,North,5,0.0,0.0,74,0.00,,,0.00,Wunderground v.1.15,2013-02-02 15:09:00,
2013-02-02 09:15:00,2.1,-4.6,30.20,North,355,0.0,0.0,73,0.00,,,0.00,Wunderground v.1.15,2013-02-02 15:15:00,
2013-02-02 09:21:00,2.3,-4.4,30.20,NNW,342,0.0,0.0,73,0.00,,,0.00,Wunderground v.1.15,2013-02-02 15:21:00,
2013-02-02 09:27:00,2.6,-4.1,30.20,North,11,0.0,0.0,73,0.00,,,0.00,Wunderground v.1.15,2013-02-02 15:27:00,
2013-02-02 09:33:00,2.9,-4.1,30.20,NNW,340,0.0,0.0,72,0.00,,,0.00,Wunderground v.1.15,2013-02-02 15:33:00,
2013-02-02 09:38:00,3.0,-4.0,30.19,NW,319,0.0,0.0,72,0.00,,,0.00,Wunderground v.1.15,2013-02-02 15:38:00,
2013-02-02 09:44:00,3.6,-3.7,30.19,NE,38,0.0,0.0,71,0.00,,,0.00,Wunderground v.1.15,2013-02-02 15:44:00,
2013-02-02 09:50:00,3.8,-3.5,30.19,NNE,30,0.0,0.0,71,0.00,,,0.00,Wunderground v.1.15,2013-02-02 15:50:00,
2013-02-02 09:56:00,4.1,-3.2,30.19,NW,310,0.0,0.0,71,0.00,,,0.00,Wunderground v.1.15,2013-02-02 15:56:00,
2013-02-02 10:01:00,4.2,-3.4,30.19,NW,307,0.0,0.0,70,0.00,,,0.00,Wunderground v.1.15,2013-02-02 16:01:00,
2013-02-02 10:07:00,4.9,-2.7,30.19,NE,43,0.0,0.0,70,0.00,,,0.00,Wunderground v.1.15,2013-02-02 16:07:00,
2013-02-02 10:13:00,6.2,-1.8,30.19,NNW,347,0.0,0.0,69,0.00,,,0.00,Wunderground v.1.15,2013-02-02 16:13:00,
2013-02-02 10:19:00,6.6,-2.0,30.19,North,5,0.0,0.0,67,0.00,,,0.00,Wunderground v.1.15,2013-02-02 16:19:00,
2013-02-02 10:24:00,7.3,-1.4,30.19,North,5,0.0,0.0,67,0.00,,,0.00,Wunderground v.1.15,2013-02-02 16:24:00,
2013-02-02 10:29:00,7.8,-1.5,30.19,North,5,0.0,0.0,65,0.00,,,0.00,Wunderground v.1.15,2013-02-02 16:29:00,
2013-02-02 10:35:00,6.5,-2.8,30.19,WSW,248,0.0,0.0,65,0.00,,,0.00,Wunderground v.1.15,2013-02-02 16:35:00,
2013-02-02 10:41:00,6.0,-2.6,30.19,SW,227,0.0,0.0,67,0.00,,,0.00,Wunderground v.1.15,2013-02-02 16:41:00,
2013-02-02 10:46:00,6.0,-2.6,30.19,WSW,244,0.0,0.0,67,0.00,,,0.00,Wunderground v.1.15,2013-02-02 16:46:00,
2013-02-02 10:52:00,5.7,-2.6,30.19,WSW,245,0.0,0.0,68,0.00,,,0.00,Wunderground v.1.15,2013-02-02 16:52:00,
2013-02-02 10:58:00,5.7,-2.6,30.19,WSW,240,0.0,0.0,68,0.00,,,0.00,Wunderground v.1.15,2013-02-02 16:58:00,
2013-02-02 11:03:00,5.9,-2.4,30.19,WSW,251,0.0,0.0,68,0.00,,,0.00,Wunderground v.1.15,2013-02-02 17:03:00,
2013-02-02 11:09:00,6.4,-1.9,30.19,WSW,256,0.0,0.0,68,0.00,,,0.00,Wunderground v.1.15,2013-02-02 17:09:00,
2013-02-02 11:15:00,6.6,-1.7,30.19,WSW,252,0.0,0.0,68,0.00,,,0.00,Wunderground v.1.15,2013-02-02 17:15:00,
2013-02-02 11:20:00,6.8,-1.5,30.18,SW,233,0.0,0.0,68,0.00,,,0.00,Wunderground v.1.15,2013-02-02 17:20:00,
2013-02-02 11:26:00,7.0,-1.7,30.18,WSW,248,0.0,0.0,67,0.00,,,0.00,Wunderground v.1.15,2013-02-02 17:26:00,
2013-02-02 11:32:00,7.7,-1.0,30.18,SSW,207,0.0,0.0,67,0.00,,,0.00,Wunderground v.1.15,2013-02-02 17:32:00,
2013-02-02 11:37:00,8.3,-0.4,30.17,NE,39,0.0,0.0,67,0.00,,,0.00,Wunderground v.1.15,2013-02-02 17:37:00,
2013-02-02 11:43:00,8.6,-0.4,30.17,NE,42,0.0,0.0,66,0.00,,,0.00,Wunderground v.1.15,2013-02-02 17:43:00,
2013-02-02 11:49:00,9.2,0.5,30.17,NE,49,0.0,0.0,67,0.00,,,0.00,Wunderground v.1.15,2013-02-02 17:49:00,
2013-02-02 11:55:00,9.8,0.4,30.17,ESE,110,0.0,0.0,65,0.00,,,0.00,Wunderground v.1.15,2013-02-02 17:55:00,
2013-02-02 12:01:00,9.8,-0.3,30.16,WSW,240,0.0,0.0,63,0.00,,,0.00,Wunderground v.1.15,2013-02-02 18:01:00,
2013-02-02 12:06:00,9.4,-0.3,30.16,SW,234,0.0,0.0,64,0.00,,,0.00,Wunderground v.1.15,2013-02-02 18:06:00,
2013-02-02 12:12:00,9.2,-0.5,30.16,SW,236,0.0,0.0,64,0.00,,,0.00,Wunderground v.1.15,2013-02-02 18:12:00,
2013-02-02 12:18:00,9.4,0.0,30.15,SW,232,0.0,0.0,65,0.00,,,0.00,Wunderground v.1.15,2013-02-02 18:18:00,
2013-02-02 12:23:00,10.0,0.6,30.15,South,183,0.0,0.0,65,0.00,,,0.00,Wunderground v.1.15,2013-02-02 18:23:00,
2013-02-02 12:29:00,10.2,0.1,30.15,SSE,163,0.0,0.0,63,0.00,,,0.00,Wunderground v.1.15,2013-02-02 18:29:00,
2013-02-02 12:34:00,9.9,0.1,30.15,WSW,238,0.0,0.0,64,0.00,,,0.00,Wunderground v.1.15,2013-02-02 18:34:00,
2013-02-02 12:40:00,9.8,0.4,30.15,WSW,250,0.0,0.0,65,0.00,,,0.00,Wunderground v.1.15,2013-02-02 18:40:00,
2013-02-02 12:46:00,9.9,0.1,30.14,WSW,242,0.0,0.0,64,0.00,,,0.00,Wunderground v.1.15,2013-02-02 18:46:00,
2013-02-02 12:52:00,10.0,0.2,30.15,WSW,242,0.0,0.0,64,0.00,,,0.00,Wunderground v.1.15,2013-02-02 18:52:00,
2013-02-02 12:57:00,10.5,0.4,30.14,SW,221,0.0,0.0,63,0.00,,,0.00,Wunderground v.1.15,2013-02-02 18:57:00,
2013-02-02 13:03:00,11.1,0.6,30.14,SW,227,0.0,0.0,62,0.00,,,0.00,Wunderground v.1.15,2013-02-02 19:03:00,
2013-02-02 13:09:00,11.2,0.7,30.14,WSW,255,0.0,0.0,62,0.00,,,0.00,Wunderground v.1.15,2013-02-02 19:09:00,
2013-02-02 13:15:00,10.9,0.8,30.14,WSW,246,0.0,0.0,63,0.00,,,0.00,Wunderground v.1.15,2013-02-02 19:15:00,
2013-02-02 13:20:00,10.9,0.8,30.13,WSW,239,0.0,0.0,63,0.00,,,0.00,Wunderground v.1.15,2013-02-02 19:20:00,
2013-02-02 13:26:00,11.2,0.7,30.13,SW,230,0.0,0.0,62,0.00,,,0.00,Wunderground v.1.15,2013-02-02 19:26:00,
2013-02-02 13:32:00,11.3,0.8,30.13,WSW,239,0.0,0.0,62,0.00,,,0.00,Wunderground v.1.15,2013-02-02 19:32:00,
2013-02-02 13:37:00,11.4,0.9,30.13,SW,236,0.0,0.0,62,0.00,,,0.00,Wunderground v.1.15,2013-02-02 19:37:00,
2013-02-02 13:43:00,11.5,0.6,30.13,WSW,242,0.0,0.0,61,0.00,,,0.00,Wunderground v.1.15,2013-02-02 19:43:00,
2013-02-02 13:48:00,11.3,0.8,30.13,SW,214,0.0,0.0,62,0.00,,,0.00,Wunderground v.1.15,2013-02-02 19:48:00,
2013-02-02 13:54:00,11.4,0.5,30.12,WSW,237,0.0,0.0,61,0.00,,,0.00,Wunderground v.1.15,2013-02-02 19:54:00,
2013-02-02 14:00:00,11.2,0.4,30.12,SSW,196,0.0,0.0,61,0.00,,,0.00,Wunderground v.1.15,2013-02-02 20:00:00,
2013-02-02 14:05:00,11.8,0.9,30.12,SSW,211,0.0,0.0,61,0.00,,,0.00,Wunderground v.1.15,2013-02-02 20:05:00,
2013-02-02 14:11:00,11.7,0.8,30.12,WSW,243,0.0,0.0,61,0.00,,,0.00,Wunderground v.1.15,2013-02-02 20:11:00,
2013-02-02 14:16:00,11.2,1.0,30.12,SSW,196,0.0,0.0,63,0.00,,,0.00,Wunderground v.1.15,2013-02-02 20:16:00,
2013-02-02 14:22:00,11.5,0.6,30.12,SW,216,0.0,0.0,61,0.00,,,0.00,Wunderground v.1.15,2013-02-02 20:22:00,
2013-02-02 14:27:00,11.7,0.8,30.12,West,265,0.0,0.0,61,0.00,,,0.00,Wunderground v.1.15,2013-02-02 20:27:00,
2013-02-02 14:33:00,11.3,0.4,30.12,SW,232,0.0,0.0,61,0.00,,,0.00,Wunderground v.1.15,2013-02-02 20:33:00,
2013-02-02 14:39:00,11.8,0.6,30.12,SW,231,0.0,0.0,60,0.00,,,0.00,Wunderground v.1.15,2013-02-02 20:39:00,
2013-02-02 14:44:00,11.8,0.6,30.12,SW,224,0.0,0.0,60,0.00,,,0.00,Wunderground v.1.15,2013-02-02 20:44:00,
2013-02-02 14:50:00,11.6,0.4,30.12,SW,215,0.0,0.0,60,0.00,,,0.00,Wunderground v.1.15,2013-02-02 20:50:00,
2013-02-02 14:56:00,11.7,0.5,30.12,SSW,213,0.0,0.0,60,0.00,,,0.00,Wunderground v.1.15,2013-02-02 20:56:00,
2013-02-02 15:01:00,11.7,0.1,30.11,WSW,248,0.0,0.0,59,0.00,,,0.00,Wunderground v.1.15,2013-02-02 21:01:00,
2013-02-02 15:07:00,11.6,0.0,30.11,WSW,246,0.0,0.0,59,0.00,,,0.00,Wunderground v.1.15,2013-02-02 21:07:00,
2013-02-02 15:13:00,11.2,0.0,30.11,SW,235,0.0,0.0,60,0.00,,,0.00,Wunderground v.1.15,2013-02-02 21:13:00,
2013-02-02 15:18:00,10.8,-0.4,30.11,WSW,253,0.0,0.0,60,0.00,,,0.00,Wunderground v.1.15,2013-02-02 21:18:00,
2013-02-02 15:24:00,10.7,-0.1,30.11,SW,227,0.0,0.0,61,0.00,,,0.00,Wunderground v.1.15,2013-02-02 21:24:00,
2013-02-02 15:30:00,10.3,-0.5,30.12,SW,235,0.0,0.0,61,0.00,,,0.00,Wunderground v.1.15,2013-02-02 21:30:00,
2013-02-02 15:36:00,9.4,-0.7,30.11,SW,236,0.0,0.0,63,0.00,,,0.00,Wunderground v.1.15,2013-02-02 21:36:00,
2013-02-02 15:41:00,9.1,-0.6,30.11,SW,228,0.0,0.0,64,0.00,,,0.00,Wunderground v.1.15,2013-02-02 21:41:00,
2013-02-02 15:46:00,9.1,-0.6,30.12,WSW,244,0.0,0.0,64,0.00,,,0.00,Wunderground v.1.15,2013-02-02 21:46:00,
2013-02-02 15:52:00,9.2,-0.5,30.12,WSW,243,0.0,0.0,64,0.00,,,0.00,Wunderground v.1.15,2013-02-02 21:52:00,
2013-02-02 15:58:00,9.4,-0.3,30.12,WSW,248,0.0,0.0,64,0.00,,,0.00,Wunderground v.1.15,2013-02-02 21:58:00,
2013-02-02 16:03:00,9.0,-0.4,30.12,WSW,242,0.0,0.0,65,0.00,,,0.00,Wunderground v.1.15,2013-02-02 22:03:00,
2013-02-02 16:09:00,8.5,-0.9,30.12,WSW,248,0.0,0.0,65,0.00,,,0.00,Wunderground v.1.15,2013-02-02 22:09:00,
2013-02-02 16:15:00,8.2,-0.8,30.12,WSW,245,0.0,0.0,66,0.00,,,0.00,Wunderground v.1.15,2013-02-02 22:15:00,
2013-02-02 16:21:00,8.1,-0.9,30.12,WSW,245,0.0,0.0,66,0.00,,,0.00,Wunderground v.1.15,2013-02-02 22:21:00,
2013-02-02 16:27:00,7.8,-0.9,30.13,WSW,244,0.0,0.0,67,0.00,,,0.00,Wunderground v.1.15,2013-02-02 22:27:00,
2013-02-02 16:33:00,7.6,-1.1,30.13,SW,236,0.0,0.0,67,0.00,,,0.00,Wunderground v.1.15,2013-02-02 22:33:00,
2013-02-02 16:38:00,7.5,-1.2,30.13,SW,236,0.0,0.0,67,0.00,,,0.00,Wunderground v.1.15,2013-02-02 22:38:00,
2013-02-02 16:44:00,7.2,-1.5,30.13,SW,236,0.0,0.0,67,0.00,,,0.00,Wunderground v.1.15,2013-02-02 22:44:00,
2013-02-02 16:50:00,7.0,-1.3,30.13,SW,230,0.0,0.0,68,0.00,,,0.00,Wunderground v.1.15,2013-02-02 22:50:00,
2013-02-02 16:56:00,7.0,-1.3,30.13,SSW,193,0.0,0.0,68,0.00,,,0.00,Wunderground v.1.15,2013-02-02 22:56:00,
2013-02-02 17:01:00,7.1,-1.2,30.12,SW,232,0.0,0.0,68,0.00,,,0.00,Wunderground v.1.15,2013-02-02 23:01:00,
2013-02-02 17:06:00,7.1,-1.2,30.12,SW,221,0.0,0.0,68,0.00,,,0.00,Wunderground v.1.15,2013-02-02 23:06:00,
2013-02-02 17:12:00,7.1,-1.2,30.12,SW,235,0.0,0.0,68,0.00,,,0.00,Wunderground v.1.15,2013-02-02 23:12:00,
2013-02-02 17:18:00,6.9,-1.4,30.12,SSW,193,0.0,0.0,68,0.00,,,0.00,Wunderground v.1.15,2013-02-02 23:18:00,
2013-02-02 17:23:00,6.6,-1.4,30.12,South,183,0.0,0.0,69,0.00,,,0.00,Wunderground v.1.15,2013-02-02 23:23:00,
2013-02-02 17:28:00,6.2,-2.1,30.12,South,187,0.0,0.0,68,0.00,,,0.00,Wunderground v.1.15,2013-02-02 23:28:00,
2013-02-02 17:34:00,6.0,-2.0,30.12,SSW,194,0.0,0.0,69,0.00,,,0.00,Wunderground v.1.15,2013-02-02 23:34:00,
2013-02-02 17:39:00,5.8,-2.2,30.12,SSE,165,0.0,0.0,69,0.00,,,0.00,Wunderground v.1.15,2013-02-02 23:39:00,
2013-02-02 17:45:00,5.6,-1.8,30.12,SSE,165,0.0,0.0,71,0.00,,,0.00,Wunderground v.1.15,2013-02-02 23:45:00,
2013-02-02 17:50:00,5.3,-2.1,30.12,SSE,165,0.0,0.0,71,0.00,,,0.00,Wunderground v.1.15,2013-02-02 23:50:00,
2013-02-02 17:55:00,5.0,-2.4,30.12,SSE,165,0.0,0.0,71,0.00,,,0.00,Wunderground v.1.15,2013-02-02 23:55:00,
2013-02-02 18:00:00,5.0,-2.4,30.11,SSE,165,0.0,0.0,71,0.00,,,0.00,Wunderground v.1.15,2013-02-03 00:00:00,
2013-02-02 18:06:00,4.8,-2.5,30.11,SSE,165,0.0,0.0,71,0.00,,,0.00,Wunderground v.1.15,2013-02-03 00:06:00,
2013-02-02 18:11:00,4.6,-2.4,30.11,SSE,165,0.0,0.0,72,0.00,,,0.00,Wunderground v.1.15,2013-02-03 00:11:00,
2013-02-02 18:17:00,4.5,-2.5,30.11,SSE,165,0.0,0.0,72,0.00,,,0.00,Wunderground v.1.15,2013-02-03 00:17:00,
2013-02-02 18:23:00,4.3,-2.7,30.11,SSE,165,0.0,0.0,72,0.00,,,0.00,Wunderground v.1.15,2013-02-03 00:23:00,
2013-02-02 18:28:00,4.0,-2.7,30.11,SSE,165,0.0,0.0,73,0.00,,,0.00,Wunderground v.1.15,2013-02-03 00:28:00,
2013-02-02 18:34:00,3.8,-2.9,30.11,SSE,165,0.0,0.0,73,0.00,,,0.00,Wunderground v.1.15,2013-02-03 00:34:00,
2013-02-02 18:40:00,3.6,-2.8,30.10,SSE,165,0.0,0.0,74,0.00,,,0.00,Wunderground v.1.15,2013-02-03 00:40:00,
2013-02-02 18:46:00,3.5,-2.9,30.10,SSE,165,0.0,0.0,74,0.00,,,0.00,Wunderground v.1.15,2013-02-03 00:46:00,
2013-02-02 18:51:00,3.3,-3.1,30.10,SSE,165,0.0,0.0,74,0.00,,,0.00,Wunderground v.1.15,2013-02-03 00:51:00,
2013-02-02 18:57:00,2.8,-3.3,30.10,SSE,165,0.0,0.0,75,0.00,,,0.00,Wunderground v.1.15,2013-02-03 00:57:00,
2013-02-02 19:03:00,2.7,-3.4,30.10,SSE,165,0.0,0.0,75,0.00,,,0.00,Wunderground v.1.15,2013-02-03 01:03:00,
2013-02-02 19:08:00,2.6,-3.5,30.10,SSE,165,0.0,0.0,75,0.00,,,0.00,Wunderground v.1.15,2013-02-03 01:08:00,
2013-02-02 19:14:00,2.5,-3.3,30.10,SSE,165,0.0,0.0,76,0.00,,,0.00,Wunderground v.1.15,2013-02-03 01:14:00,
2013-02-02 19:20:00,2.3,-3.5,30.10,SSW,196,0.0,0.0,76,0.00,,,0.00,Wunderground v.1.15,2013-02-03 01:20:00,
2013-02-02 19:25:00,2.2,-3.6,30.10,SSW,196,0.0,0.0,76,0.00,,,0.00,Wunderground v.1.15,2013-02-03 01:25:00,
2013-02-02 19:31:00,1.7,-4.1,30.10,SSW,196,0.0,0.0,76,0.00,,,0.00,Wunderground v.1.15,2013-02-03 01:31:00,
2013-02-02 19:37:00,1.6,-3.9,30.09,SSW,196,0.0,0.0,77,0.00,,,0.00,Wunderground v.1.15,2013-02-03 01:37:00,
2013-02-02 19:42:00,1.6,-3.9,30.09,SSW,196,0.0,0.0,77,0.00,,,0.00,Wunderground v.1.15,2013-02-03 01:42:00,
2013-02-02 19:48:00,1.5,-4.0,30.09,SSW,196,0.0,0.0,77,0.00,,,0.00,Wunderground v.1.15,2013-02-03 01:48:00,
2013-02-02 19:54:00,1.6,-3.9,30.09,SSW,196,0.0,0.0,77,0.00,,,0.00,Wunderground v.1.15,2013-02-03 01:54:00,
2013-02-02 19:59:00,1.6,-3.9,30.09,SSW,196,0.0,0.0,77,0.00,,,0.00,Wunderground v.1.15,2013-02-03 01:59:00,
2013-02-02 20:05:00,1.3,-4.2,30.09,SSW,196,0.0,0.0,77,0.00,,,0.00,Wunderground v.1.15,2013-02-03 02:05:00,
2013-02-02 20:11:00,1.0,-4.5,30.09,SSW,196,0.0,0.0,77,0.00,,,0.00,Wunderground v.1.15,2013-02-03 02:11:00,
2013-02-02 20:16:00,0.5,-5.0,30.09,SSW,196,0.0,0.0,77,0.00,,,0.00,Wunderground v.1.15,2013-02-03 02:16:00,
2013-02-02 20:22:00,0.4,-4.6,30.09,SSW,196,0.0,0.0,79,0.00,,,0.00,Wunderground v.1.15,2013-02-03 02:22:00,
2013-02-02 20:28:00,0.7,-4.3,30.09,SSW,196,0.0,0.0,79,0.00,,,0.00,Wunderground v.1.15,2013-02-03 02:28:00,
2013-02-02 20:34:00,0.7,-4.3,30.08,SSW,196,0.0,0.0,79,0.00,,,0.00,Wunderground v.1.15,2013-02-03 02:34:00,
2013-02-02 20:39:00,0.6,-4.4,30.08,SSW,196,0.0,0.0,79,0.00,,,0.00,Wunderground v.1.15,2013-02-03 02:39:00,
2013-02-02 20:45:00,0.5,-4.5,30.09,SSW,196,0.0,0.0,79,0.00,,,0.00,Wunderground v.1.15,2013-02-03 02:45:00,
2013-02-02 20:51:00,0.0,-5.2,30.08,SSW,196,0.0,0.0,78,0.00,,,0.00,Wunderground v.1.15,2013-02-03 02:51:00,
2013-02-02 20:57:00,-0.2,-5.2,30.07,ESE,119,0.0,0.0,79,0.00,,,0.00,Wunderground v.1.15,2013-02-03 02:57:00,
2013-02-02 21:02:00,-0.4,-5.4,30.07,ESE,119,0.0,0.0,79,0.00,,,0.00,Wunderground v.1.15,2013-02-03 03:02:00,
2013-02-02 21:08:00,-0.6,-5.6,30.07,ESE,119,0.0,0.0,79,0.00,,,0.00,Wunderground v.1.15,2013-02-03 03:08:00,
2013-02-02 21:14:00,-0.7,-5.4,30.07,ESE,119,0.0,0.0,80,0.00,,,0.00,Wunderground v.1.15,2013-02-03 03:14:00,
2013-02-02 21:19:00,-0.5,-5.2,30.07,ESE,119,0.0,0.0,80,0.00,,,0.00,Wunderground v.1.15,2013-02-03 03:19:00,
2013-02-02 21:25:00,-0.7,-5.4,30.07,ESE,119,0.0,0.0,80,0.00,,,0.00,Wunderground v.1.15,2013-02-03 03:25:00,
2013-02-02 21:31:00,-0.6,-5.0,30.07,ESE,119,0.0,0.0,81,0.00,,,0.00,Wunderground v.1.15,2013-02-03 03:31:00,
2013-02-02 21:36:00,-0.4,-4.6,30.06,ESE,119,0.0,0.0,82,0.00,,,0.00,Wunderground v.1.15,2013-02-03 03:36:00,
2013-02-02 21:42:00,-0.1,-4.3,30.06,ESE,119,0.0,0.0,82,0.00,,,0.00,Wunderground v.1.15,2013-02-03 03:42:00,
2013-02-02 21:48:00,0.2,-4.0,30.06,ESE,119,0.0,0.0,82,0.00,,,0.00,Wunderground v.1.15,2013-02-03 03:48:00,
2013-02-02 21:54:00,0.5,-3.7,30.06,ESE,119,0.0,0.0,82,0.00,,,0.00,Wunderground v.1.15,2013-02-03 03:54:00,
2013-02-02 22:00:00,0.7,-3.5,30.06,ESE,119,0.0,0.0,82,0.00,,,0.00,Wunderground v.1.15,2013-02-03 04:00:00,
2013-02-02 22:06:00,0.8,-3.7,30.05,ESE,119,0.0,0.0,81,0.00,,,0.00,Wunderground v.1.15,2013-02-03 04:06:00,
2013-02-02 22:12:00,1.0,-3.7,30.05,ESE,119,0.0,0.0,80,0.00,,,0.00,Wunderground v.1.15,2013-02-03 04:12:00,
2013-02-02 22:17:00,1.0,-3.7,30.05,ESE,119,0.0,0.0,80,0.00,,,0.00,Wunderground v.1.15,2013-02-03 04:17:00,
2013-02-02 22:23:00,1.0,-3.7,30.05,South,177,0.0,0.0,80,0.00,,,0.00,Wunderground v.1.15,2013-02-03 04:23:00,
2013-02-02 22:29:00,0.5,-4.5,30.05,South,177,0.0,0.0,79,0.00,,,0.00,Wunderground v.1.15,2013-02-03 04:29:00,
2013-02-02 22:35:00,0.0,-5.0,30.04,South,177,0.0,0.0,79,0.00,,,0.00,Wunderground v.1.15,2013-02-03 04:35:00,
2013-02-02 22:41:00,-0.2,-4.9,30.04,South,178,0.0,0.0,80,0.00,,,0.00,Wunderground v.1.15,2013-02-03 04:41:00,
2013-02-02 22:46:00,-0.2,-4.6,30.04,South,178,0.0,0.0,81,0.00,,,0.00,Wunderground v.1.15,2013-02-03 04:46:00,
2013-02-02 22:52:00,-0.2,-4.6,30.03,South,178,0.0,0.0,81,0.00,,,0.00,Wunderground v.1.15,2013-02-03 04:52:00,
2013-02-02 22:57:00,0.1,-4.3,30.04,South,178,0.0,0.0,81,0.00,,,0.00,Wunderground v.1.15,2013-02-03 04:57:00,
2013-02-02 23:00:00,0.3,-4.2,30.03,South,178,0.0,0.0,81,0.00,,,0.00,Wunderground v.1.15,2013-02-03 05:00:00,
2013-02-02 23:03:00,0.5,-4.2,30.04,SW,215,0.0,0.0,80,0.00,,,0.00,Wunderground v.1.15,2013-02-03 05:03:00,
2013-02-02 23:09:00,0.8,-3.9,30.03,SW,215,0.0,0.0,80,0.00,,,0.00,Wunderground v.1.15,2013-02-03 05:09:00,
2013-02-02 23:10:00,0.9,-3.8,30.03,SW,215,0.0,0.0,80,0.00,,,0.00,Wunderground v.1.15,2013-02-03 05:10:00,
2013-02-02 23:12:00,1.0,-3.7,30.04,SW,215,0.0,0.0,80,0.00,,,0.00,Wunderground v.1.15,2013-02-03 05:12:00,
2013-02-02 23:18:00,1.1,-3.6,30.03,SW,217,0.0,0.0,80,0.00,,,0.00,Wunderground v.1.15,2013-02-03 05:18:00,
2013-02-02 23:23:00,1.2,-3.5,30.03,SW,217,0.0,0.0,80,0.00,,,0.00,Wunderground v.1.15,2013-02-03 05:23:00,
2013-02-02 23:29:00,0.9,-4.1,30.03,SW,217,0.0,0.0,79,0.00,,,0.00,Wunderground v.1.15,2013-02-03 05:29:00,
2013-02-02 23:35:00,0.4,-4.8,30.03,SW,217,0.0,0.0,78,0.00,,,0.00,Wunderground v.1.15,2013-02-03 05:35:00,
2013-02-02 23:41:00,-0.1,-5.1,30.03,SW,217,0.0,0.0,79,0.00,,,0.00,Wunderground v.1.15,2013-02-03 05:41:00,
2013-02-02 23:46:00,-0.3,-4.7,30.03,SW,217,0.0,0.0,81,0.00,,,0.00,Wunderground v.1.15,2013-02-03 05:46:00,
2013-02-02 23:52:00,-0.1,-4.5,30.03,SW,217,0.0,0.0,81,0.00,,,0.00,Wunderground v.1.15,2013-02-03 05:52:00,
2013-02-02 23:58:00,-0.1,-4.5,30.02,SW,217,0.0,0.0,81,0.00,,,0.00,Wunderground v.1.15,2013-02-03 05:58:00,